createdAt,value
2022-11-07T00:01:23.232Z,2.57
2022-11-07T00:03:53.740Z,3.20
2022-11-07T00:06:20.859Z,3.30
2022-11-07T00:08:47.831Z,2.57
2022-11-07T00:11:15.068Z,3.00
2022-11-07T00:13:42.008Z,3.27
2022-11-07T00:16:10.723Z,3.30
2022-11-07T00:18:37.907Z,3.20
2022-11-07T00:21:07.238Z,2.73
2022-11-07T00:23:34.876Z,2.97
2022-11-07T00:26:13.132Z,2.97
2022-11-07T00:28:42.554Z,3.43
2022-11-07T00:31:11.548Z,3.00
2022-11-07T00:33:38.568Z,2.90
2022-11-07T00:36:06.004Z,2.90
2022-11-07T00:38:32.980Z,3.37
2022-11-07T00:41:10.080Z,2.97
2022-11-07T00:43:36.994Z,3.33
2022-11-07T00:46:05.529Z,2.97
2022-11-07T00:48:32.876Z,2.97
2022-11-07T00:51:28.451Z,3.47
2022-11-07T00:53:55.816Z,2.93
2022-11-07T00:56:24.996Z,2.90
2022-11-07T00:58:57.223Z,2.97
2022-11-07T01:01:26.663Z,3.47
2022-11-07T01:04:12.201Z,3.93
2022-11-07T01:06:40.625Z,3.20
2022-11-07T01:09:19.222Z,3.20
2022-11-07T01:11:47.116Z,3.27
2022-11-07T01:14:16.673Z,3.37
2022-11-07T01:16:44.104Z,3.50
2022-11-07T01:19:11.975Z,3.27
2022-11-07T01:21:40.987Z,3.30
2022-11-07T01:24:10.084Z,3.80
2022-11-07T01:26:38.347Z,3.40
2022-11-07T01:29:06.182Z,3.20
2022-11-07T01:31:33.038Z,3.33
2022-11-07T01:34:02.755Z,3.03
2022-11-07T01:36:29.687Z,3.43
2022-11-07T01:38:56.575Z,3.93
2022-11-07T01:41:26.671Z,3.73
2022-11-07T01:43:58.293Z,3.70
2022-11-07T01:46:29.161Z,4.30
2022-11-07T01:49:17.584Z,4.20
2022-11-07T01:52:06.750Z,4.23
2022-11-07T01:54:58.323Z,3.50
2022-11-07T01:57:33.256Z,3.80
2022-11-07T02:00:04.070Z,4.30
2022-11-07T02:02:31.816Z,4.23
2022-11-07T02:05:01.257Z,4.53
2022-11-07T02:07:29.327Z,4.37
2022-11-07T02:09:56.786Z,5.00
2022-11-07T02:12:25.945Z,5.03
2022-11-07T02:14:53.433Z,4.20
2022-11-07T02:17:20.550Z,3.97
2022-11-07T02:19:50.465Z,4.40
2022-11-07T02:22:40.039Z,4.37
2022-11-07T02:25:13.417Z,4.63
2022-11-07T02:27:42.310Z,3.70
2022-11-07T02:30:16.791Z,4.00
2022-11-07T02:32:44.200Z,4.40
2022-11-07T02:35:33.312Z,4.03
2022-11-07T02:38:01.904Z,4.00
2022-11-07T02:40:30.770Z,3.63
2022-11-07T02:42:59.536Z,4.00
2022-11-07T02:45:29.627Z,3.80
2022-11-07T02:47:56.852Z,4.37
2022-11-07T02:50:23.901Z,3.17
2022-11-07T02:52:51.054Z,3.40
2022-11-07T02:55:19.039Z,3.60
2022-11-07T02:57:45.925Z,3.50
2022-11-07T03:00:15.001Z,4.23
2022-11-07T03:02:47.412Z,3.67
2022-11-07T03:05:15.992Z,3.57
2022-11-07T03:07:44.311Z,3.67
2022-11-07T03:10:11.585Z,4.27
2022-11-07T03:12:38.573Z,3.97
2022-11-07T03:15:07.242Z,3.60
2022-11-07T03:17:34.916Z,3.50
2022-11-07T03:20:02.055Z,3.73
2022-11-07T03:22:28.993Z,3.60
2022-11-07T03:24:56.181Z,3.77
2022-11-07T03:27:23.561Z,3.23
2022-11-07T03:29:50.543Z,3.37
2022-11-07T03:32:18.884Z,3.90
2022-11-07T03:34:45.966Z,3.77
2022-11-07T03:37:12.838Z,4.53
2022-11-07T03:39:39.682Z,3.20
2022-11-07T03:42:06.644Z,3.50
2022-11-07T03:44:33.553Z,3.57
2022-11-07T03:47:00.381Z,3.13
2022-11-07T03:49:27.221Z,3.50
2022-11-07T03:51:54.178Z,3.37
2022-11-07T03:54:21.076Z,3.27
2022-11-07T03:56:47.992Z,3.87
2022-11-07T03:59:15.210Z,3.43
2022-11-07T04:01:42.174Z,3.23
2022-11-07T04:04:09.348Z,3.20
2022-11-07T04:06:36.339Z,3.20
2022-11-07T04:09:03.735Z,3.30
2022-11-07T04:11:49.741Z,3.20
2022-11-07T04:14:35.215Z,3.00
2022-11-07T04:17:21.951Z,3.20
2022-11-07T04:19:51.700Z,3.10
2022-11-07T04:22:19.701Z,3.03
2022-11-07T04:24:46.780Z,2.93
2022-11-07T04:27:35.719Z,2.90
2022-11-07T04:30:19.415Z,2.93
2022-11-07T04:32:51.873Z,3.10
2022-11-07T04:35:20.270Z,2.57
2022-11-07T04:37:48.133Z,2.90
2022-11-07T04:40:16.543Z,3.00
2022-11-07T04:42:45.151Z,3.00
2022-11-07T04:45:12.862Z,2.67
2022-11-07T04:47:41.034Z,2.80
2022-11-07T04:50:13.113Z,2.97
2022-11-07T04:52:40.020Z,3.27
2022-11-07T04:55:09.499Z,2.73
2022-11-07T04:57:36.902Z,3.13
2022-11-07T05:00:04.854Z,2.43
2022-11-07T05:02:31.847Z,2.60
2022-11-07T05:04:58.949Z,3.20
2022-11-07T05:07:25.882Z,3.07
2022-11-07T05:09:52.781Z,3.50
2022-11-07T05:12:19.683Z,3.90
2022-11-07T05:14:46.656Z,3.67
2022-11-07T05:17:17.920Z,3.87
2022-11-07T05:19:45.339Z,3.70
2022-11-07T05:22:30.808Z,3.93
2022-11-07T05:24:58.140Z,3.80
2022-11-07T05:27:25.104Z,3.93
2022-11-07T05:29:52.660Z,3.80
2022-11-07T05:32:19.692Z,4.43
2022-11-07T05:34:46.596Z,3.70
2022-11-07T05:37:14.092Z,3.83
2022-11-07T05:39:41.260Z,3.67
2022-11-07T05:42:08.659Z,4.77
2022-11-07T05:44:35.753Z,4.27
2022-11-07T05:47:02.954Z,5.50
2022-11-07T05:49:30.048Z,4.60
2022-11-07T05:51:57.547Z,4.67
2022-11-07T05:54:24.946Z,5.00
2022-11-07T05:56:56.882Z,5.40
2022-11-07T05:59:24.065Z,5.47
2022-11-07T06:01:52.929Z,6.87
2022-11-07T06:04:20.108Z,5.57
2022-11-07T06:06:47.116Z,5.07
2022-11-07T06:09:14.198Z,5.67
2022-11-07T06:11:42.043Z,4.57
2022-11-07T06:14:12.102Z,5.20
2022-11-07T06:16:41.402Z,5.47
2022-11-07T06:19:08.893Z,5.27
2022-11-07T06:21:36.071Z,4.80
2022-11-07T06:24:03.576Z,4.70
2022-11-07T06:26:30.546Z,4.57
2022-11-07T06:28:57.429Z,5.40
2022-11-07T06:31:24.360Z,6.03
2022-11-07T06:33:51.753Z,5.10
2022-11-07T06:36:19.214Z,4.70
2022-11-07T06:38:46.295Z,5.27
2022-11-07T06:41:14.824Z,5.23
2022-11-07T06:43:42.899Z,4.90
2022-11-07T06:46:13.603Z,7.20
2022-11-07T06:48:40.601Z,5.23
2022-11-07T06:51:09.986Z,5.23
2022-11-07T06:53:37.247Z,4.60
2022-11-07T06:56:06.997Z,5.33
2022-11-07T06:58:34.449Z,6.23
2022-11-07T07:01:08.417Z,5.30
2022-11-07T07:03:38.267Z,4.90
2022-11-07T07:06:08.229Z,5.10
2022-11-07T07:08:35.573Z,4.73
2022-11-07T07:11:04.474Z,4.37
2022-11-07T07:13:31.489Z,5.40
2022-11-07T07:15:58.984Z,4.43
2022-11-07T07:18:27.241Z,4.63
2022-11-07T07:21:07.585Z,5.20
2022-11-07T07:23:35.203Z,5.60
2022-11-07T07:26:03.413Z,5.47
2022-11-07T07:28:45.969Z,4.50
2022-11-07T07:31:16.075Z,4.40
2022-11-07T07:33:45.299Z,4.67
2022-11-07T07:36:19.231Z,4.80
2022-11-07T07:38:53.156Z,4.20
2022-11-07T07:41:22.631Z,3.87
2022-11-07T07:43:49.588Z,5.90
2022-11-07T07:46:22.184Z,4.40
2022-11-07T07:48:50.852Z,4.50
2022-11-07T07:51:18.176Z,4.47
2022-11-07T07:53:48.435Z,5.30
2022-11-07T07:56:17.452Z,4.17
2022-11-07T07:58:53.855Z,4.33
2022-11-07T08:01:21.437Z,7.43
2022-11-07T08:04:03.369Z,4.20
2022-11-07T08:06:30.649Z,4.03
2022-11-07T08:08:57.694Z,4.20
2022-11-07T08:11:24.618Z,3.87
2022-11-07T08:13:55.103Z,4.40
2022-11-07T08:16:27.032Z,3.40
2022-11-07T08:18:54.135Z,4.33
2022-11-07T08:21:22.438Z,3.80
2022-11-07T08:23:53.533Z,3.93
2022-11-07T08:26:20.963Z,4.00
2022-11-07T08:28:48.434Z,7.50
2022-11-07T08:31:15.490Z,3.60
2022-11-07T08:33:43.020Z,4.67
2022-11-07T08:36:10.289Z,3.10
2022-11-07T08:38:40.073Z,4.20
2022-11-07T08:41:07.020Z,4.83
2022-11-07T08:43:34.140Z,4.77
2022-11-07T08:46:01.211Z,4.50
2022-11-07T08:48:28.451Z,4.63
2022-11-07T08:50:57.476Z,4.17
2022-11-07T08:53:26.422Z,3.67
2022-11-07T08:55:54.915Z,4.03
2022-11-07T08:58:25.884Z,4.33
2022-11-07T09:00:55.847Z,4.57
2022-11-07T09:03:44.003Z,4.87
2022-11-07T09:06:10.154Z,3.97
2022-11-07T09:08:39.448Z,4.60
2022-11-07T09:11:08.359Z,5.70
2022-11-07T09:13:35.548Z,4.57
2022-11-07T09:16:04.965Z,4.93
2022-11-07T09:18:35.517Z,4.50
2022-11-07T09:21:03.011Z,4.00
2022-11-07T09:23:30.066Z,4.27
2022-11-07T09:26:03.905Z,3.53
2022-11-07T09:28:31.020Z,4.57
2022-11-07T09:30:59.039Z,4.20
2022-11-07T09:33:27.302Z,4.80
2022-11-07T09:35:54.640Z,4.83
2022-11-07T09:38:23.796Z,4.63
2022-11-07T09:40:59.451Z,4.77
2022-11-07T09:43:31.263Z,3.43
2022-11-07T09:46:21.768Z,4.77
2022-11-07T09:48:55.860Z,5.77
2022-11-07T09:51:45.884Z,4.77
2022-11-07T09:54:20.292Z,4.20
2022-11-07T09:56:51.738Z,4.10
2022-11-07T09:59:46.514Z,4.27
2022-11-07T10:02:16.877Z,4.40
2022-11-07T10:04:45.066Z,5.07
2022-11-07T10:07:18.012Z,4.93
2022-11-07T10:10:07.893Z,5.30
2022-11-07T10:13:03.910Z,4.87
2022-11-07T10:15:55.879Z,4.70
2022-11-07T10:18:37.136Z,5.40
2022-11-07T10:21:38.669Z,4.07
2022-11-07T10:24:25.253Z,4.23
2022-11-07T10:26:52.807Z,4.57
2022-11-07T10:29:26.759Z,4.43
2022-11-07T10:32:39.934Z,4.43
2022-11-07T10:35:32.647Z,5.67
2022-11-07T10:38:02.183Z,4.70
2022-11-07T10:40:43.459Z,4.90
2022-11-07T10:43:28.601Z,4.40
2022-11-07T10:45:56.889Z,4.57
2022-11-07T10:48:23.916Z,4.60
2022-11-07T10:51:04.786Z,4.53
2022-11-07T10:53:31.924Z,5.00
2022-11-07T10:55:59.326Z,4.47
2022-11-07T10:58:30.235Z,5.80
2022-11-07T11:01:11.694Z,4.50
2022-11-07T11:03:46.246Z,4.30
2022-11-07T11:06:24.735Z,5.07
2022-11-07T11:08:53.182Z,4.47
2022-11-07T11:11:33.117Z,4.43
2022-11-07T11:14:16.348Z,4.40
2022-11-07T11:16:44.200Z,4.10
2022-11-07T11:19:26.836Z,4.63
2022-11-07T11:24:43.899Z,4.63
2022-11-07T11:27:14.164Z,4.37
2022-11-07T11:29:56.340Z,4.47
2022-11-07T11:32:50.730Z,5.13
2022-11-07T11:35:41.644Z,4.37
2022-11-07T11:38:24.355Z,4.17
2022-11-07T11:41:11.098Z,3.90
2022-11-07T11:44:13.837Z,4.17
2022-11-07T11:46:45.948Z,4.33
2022-11-07T11:49:18.378Z,5.07
2022-11-07T11:51:49.757Z,4.97
2022-11-07T11:54:18.317Z,3.17
2022-11-07T11:56:53.496Z,4.67
2022-11-07T11:59:20.361Z,4.67
2022-11-07T12:02:12.701Z,4.77
2022-11-07T12:04:50.080Z,4.43
2022-11-07T12:07:55.768Z,3.93
2022-11-07T12:10:49.741Z,4.57
2022-11-07T12:13:35.639Z,3.97
2022-11-07T12:16:36.629Z,4.13
2022-11-07T12:19:09.326Z,4.30
2022-11-07T12:22:04.027Z,3.57
2022-11-07T12:25:10.348Z,3.87
2022-11-07T12:27:39.995Z,3.80
2022-11-07T12:30:24.607Z,4.87
2022-11-07T12:33:18.663Z,3.80
2022-11-07T12:36:24.916Z,3.20
2022-11-07T12:39:33.008Z,3.93
2022-11-07T12:42:13.263Z,3.83
2022-11-07T12:45:09.196Z,3.83
2022-11-07T12:47:39.012Z,4.60
2022-11-07T12:50:15.650Z,4.23
2022-11-07T12:53:33.984Z,6.33
2022-11-07T12:56:10.282Z,3.83
2022-11-07T12:58:40.897Z,4.10
2022-11-07T13:01:12.085Z,4.70
2022-11-07T13:04:18.993Z,4.33
2022-11-07T13:07:04.678Z,4.03
2022-11-07T13:10:02.710Z,4.50
2022-11-07T13:12:44.902Z,5.20
2022-11-07T13:15:15.989Z,5.10
2022-11-07T13:17:45.386Z,4.63
2022-11-07T13:20:21.622Z,4.80
2022-11-07T13:22:53.664Z,4.80
2022-11-07T13:25:32.103Z,4.57
2022-11-07T13:27:59.235Z,4.87
2022-11-07T13:30:36.932Z,5.13
2022-11-07T13:33:07.660Z,4.27
2022-11-07T13:35:38.204Z,4.40
2022-11-07T13:38:12.521Z,4.73
2022-11-07T13:40:50.236Z,4.53
2022-11-07T13:43:23.107Z,4.90
2022-11-07T13:45:51.788Z,4.90
2022-11-07T13:48:42.680Z,6.53
2022-11-07T13:51:30.105Z,3.97
2022-11-07T13:54:16.046Z,4.37
2022-11-07T13:57:14.335Z,4.30
2022-11-07T13:59:51.778Z,4.47
2022-11-07T14:02:30.706Z,4.53
2022-11-07T14:05:17.152Z,4.17
2022-11-07T14:07:51.232Z,5.93
2022-11-07T14:10:29.120Z,4.53
2022-11-07T14:13:13.253Z,4.70
2022-11-07T14:15:54.050Z,3.87
2022-11-07T14:18:25.999Z,4.07
2022-11-07T14:20:59.629Z,4.33
2022-11-07T14:23:32.688Z,4.27
2022-11-07T14:26:20.325Z,4.60
2022-11-07T14:28:49.591Z,4.03
2022-11-07T14:31:27.362Z,4.27
2022-11-07T14:33:58.810Z,3.60
2022-11-07T14:36:26.870Z,3.43
2022-11-07T14:39:00.305Z,3.50
2022-11-07T14:41:27.766Z,4.07
2022-11-07T14:44:00.166Z,4.43
2022-11-07T14:46:27.512Z,4.27
2022-11-07T14:48:57.778Z,3.67
2022-11-07T14:51:29.501Z,3.90
2022-11-07T14:54:07.343Z,3.87
2022-11-07T14:56:38.722Z,3.83
2022-11-07T14:59:12.194Z,3.93
2022-11-07T15:01:39.645Z,3.37
2022-11-07T15:04:26.128Z,3.70
2022-11-07T15:06:53.159Z,3.83
2022-11-07T15:09:32.458Z,4.00
2022-11-07T15:12:01.566Z,4.23
2022-11-07T15:14:35.657Z,3.53
2022-11-07T15:17:07.544Z,3.60
2022-11-07T15:19:36.271Z,4.23
2022-11-07T15:22:05.506Z,4.10
2022-11-07T15:24:49.858Z,4.03
2022-11-07T15:27:21.624Z,3.70
2022-11-07T15:30:00.055Z,4.43
2022-11-07T15:32:40.811Z,3.50
2022-11-07T15:38:19.720Z,4.10
2022-11-07T15:40:47.571Z,3.77
2022-11-07T15:43:14.645Z,3.90
2022-11-07T15:45:43.035Z,4.23
2022-11-07T15:48:19.705Z,3.67
2022-11-07T15:50:48.896Z,3.97
2022-11-07T15:53:23.845Z,3.27
2022-11-07T15:55:59.908Z,3.27
2022-11-07T15:58:29.352Z,3.73
2022-11-07T16:00:58.812Z,3.80
2022-11-07T16:03:28.202Z,3.10
2022-11-07T16:05:59.040Z,3.53
2022-11-07T16:08:28.042Z,4.83
2022-11-07T16:11:02.972Z,4.63
2022-11-07T16:13:32.737Z,3.83
2022-11-07T16:16:04.274Z,3.13
2022-11-07T16:18:46.023Z,3.50
2022-11-07T16:21:13.577Z,3.43
2022-11-07T16:23:42.502Z,3.50
2022-11-07T16:26:12.875Z,3.90
2022-11-07T16:28:41.204Z,3.23
2022-11-07T16:31:11.830Z,3.03
2022-11-07T16:33:39.055Z,2.90
2022-11-07T16:36:21.274Z,3.47
2022-11-07T16:38:51.501Z,3.63
2022-11-07T16:41:19.439Z,3.30
2022-11-07T16:43:47.498Z,3.50
2022-11-07T16:46:23.386Z,2.83
2022-11-07T16:49:10.945Z,3.20
2022-11-07T16:51:37.816Z,3.77
2022-11-07T16:54:04.818Z,2.97
2022-11-07T16:56:34.629Z,2.10
2022-11-07T16:59:02.507Z,2.87
2022-11-07T17:01:29.749Z,3.27
2022-11-07T17:03:56.881Z,2.30
2022-11-07T17:06:33.677Z,2.53
2022-11-07T17:09:10.387Z,2.87
2022-11-07T17:11:40.195Z,2.87
2022-11-07T17:14:07.204Z,3.17
2022-11-07T17:16:36.788Z,3.70
2022-11-07T17:19:05.471Z,3.17
2022-11-07T17:21:36.456Z,3.27
2022-11-07T17:24:07.414Z,3.87
2022-11-07T17:26:37.839Z,3.17
2022-11-07T17:29:07.588Z,3.57
2022-11-07T17:31:35.312Z,3.30
2022-11-07T17:34:05.045Z,3.47
2022-11-07T17:36:41.243Z,3.50
2022-11-07T17:39:12.636Z,4.00
2022-11-07T17:41:40.858Z,4.33
2022-11-07T17:44:08.387Z,3.70
2022-11-07T17:46:36.849Z,3.77
2022-11-07T17:49:09.058Z,3.17
2022-11-07T17:51:38.035Z,2.80
2022-11-07T17:54:05.262Z,3.10
2022-11-07T17:56:35.988Z,2.60
2022-11-07T17:59:05.975Z,2.37
2022-11-07T18:01:37.721Z,2.30
2022-11-07T18:04:06.153Z,2.27
2022-11-07T18:06:37.553Z,2.03
2022-11-07T18:09:06.611Z,2.10
2022-11-07T18:11:42.756Z,2.23
2022-11-07T18:14:10.694Z,2.07
2022-11-07T18:16:37.814Z,2.13
2022-11-07T18:19:07.101Z,1.47
2022-11-07T18:21:37.199Z,2.00
2022-11-07T18:24:04.744Z,2.20
2022-11-07T18:26:33.340Z,1.80
2022-11-07T18:29:12.755Z,2.20
2022-11-07T18:31:42.066Z,2.10
2022-11-07T18:34:15.465Z,2.30
2022-11-07T18:36:44.701Z,2.37
2022-11-07T18:39:19.069Z,2.00
2022-11-07T18:41:47.723Z,1.90
2022-11-07T18:44:17.638Z,1.80
2022-11-07T18:46:47.350Z,1.80
2022-11-07T18:49:15.650Z,1.50
2022-11-07T18:51:50.274Z,2.67
2022-11-07T18:54:17.454Z,1.67
2022-11-07T18:56:44.551Z,1.60
2022-11-07T18:59:12.130Z,1.77
2022-11-07T19:01:39.380Z,1.77
2022-11-07T19:04:07.664Z,1.60
2022-11-07T19:06:34.669Z,1.60
2022-11-07T19:09:02.299Z,1.63
2022-11-07T19:11:34.242Z,1.57
2022-11-07T19:14:02.653Z,1.73
2022-11-07T19:16:29.892Z,1.90
2022-11-07T19:18:59.511Z,1.77
2022-11-07T19:21:26.965Z,2.23
2022-11-07T19:23:54.091Z,2.00
2022-11-07T19:26:21.123Z,1.90
2022-11-07T19:28:48.398Z,1.93
2022-11-07T19:31:15.536Z,1.80
2022-11-07T19:33:44.278Z,2.07
2022-11-07T19:36:17.788Z,1.60
2022-11-07T19:39:05.275Z,1.80
2022-11-07T19:41:32.440Z,2.33
2022-11-07T19:44:01.923Z,1.80
2022-11-07T19:46:30.167Z,1.77
2022-11-07T19:49:04.225Z,1.80
2022-11-07T19:51:33.476Z,2.37
2022-11-07T19:54:04.915Z,1.70
2022-11-07T19:56:32.705Z,2.30
2022-11-07T19:59:01.646Z,2.10
2022-11-07T20:01:31.982Z,1.80
2022-11-07T20:04:01.599Z,1.53
2022-11-07T20:06:38.169Z,1.90
2022-11-07T20:09:08.507Z,1.43
2022-11-07T20:11:36.525Z,2.03
2022-11-07T20:14:04.250Z,1.60
2022-11-07T20:16:35.052Z,1.70
2022-11-07T20:19:02.512Z,1.83
2022-11-07T20:21:30.899Z,1.80
2022-11-07T20:24:02.062Z,1.50
2022-11-07T20:26:31.748Z,1.83
2022-11-07T20:28:59.750Z,1.43
2022-11-07T20:31:36.791Z,1.30
2022-11-07T20:34:13.400Z,1.80
2022-11-07T20:36:41.165Z,1.20
2022-11-07T20:39:08.867Z,1.40
2022-11-07T20:41:36.187Z,1.50
2022-11-07T20:44:07.452Z,1.53
2022-11-07T20:46:36.804Z,1.53
2022-11-07T20:49:06.146Z,1.50
2022-11-07T20:51:33.537Z,1.17
2022-11-07T20:54:00.757Z,1.17
2022-11-07T20:56:30.952Z,1.40
2022-11-07T20:58:58.513Z,1.30
2022-11-07T21:01:36.057Z,2.10
2022-11-07T21:04:12.173Z,1.10
2022-11-07T21:06:39.108Z,1.30
2022-11-07T21:09:06.637Z,1.40
2022-11-07T21:11:36.906Z,1.47
2022-11-07T21:14:04.540Z,1.27
2022-11-07T21:16:34.596Z,1.03
2022-11-07T21:19:05.083Z,1.97
2022-11-07T21:21:37.796Z,1.33
2022-11-07T21:24:40.859Z,1.50
2022-11-07T21:26:58.156Z,1.67
2022-11-07T21:29:29.759Z,1.40
2022-11-07T21:31:57.476Z,1.37
2022-11-07T21:34:24.452Z,1.40
2022-11-07T21:36:52.740Z,1.03
2022-11-07T21:39:20.184Z,1.50
2022-11-07T21:41:47.231Z,1.20
2022-11-07T21:44:14.450Z,1.07
2022-11-07T21:46:41.316Z,1.30
2022-11-07T21:49:08.591Z,1.00
2022-11-07T21:51:36.196Z,1.43
2022-11-07T21:54:04.426Z,1.20
2022-11-07T21:56:36.908Z,1.00
2022-11-07T21:59:10.619Z,1.10
2022-11-07T22:01:39.321Z,1.10
2022-11-07T22:04:10.066Z,1.10
2022-11-07T22:06:40.905Z,1.83
2022-11-07T22:09:09.124Z,1.47
2022-11-07T22:11:36.730Z,1.67
2022-11-07T22:14:09.752Z,1.00
2022-11-07T22:16:36.840Z,1.03
2022-11-07T22:19:07.271Z,0.90
2022-11-07T22:21:36.986Z,0.67
2022-11-07T22:24:42.750Z,0.90
2022-11-07T22:31:21.864Z,1.07
2022-11-07T22:34:24.874Z,1.00
2022-11-07T22:36:51.892Z,0.63
2022-11-07T22:39:19.030Z,1.13
2022-11-07T22:41:46.254Z,0.80
2022-11-07T22:44:13.140Z,1.07
2022-11-07T22:46:40.244Z,1.03
2022-11-07T22:49:07.185Z,1.03
2022-11-07T22:51:35.500Z,1.20
2022-11-07T22:54:08.565Z,1.33
2022-11-07T22:56:36.791Z,1.17
2022-11-07T22:59:05.355Z,1.30
2022-11-07T23:01:40.658Z,1.27
2022-11-07T23:04:09.852Z,1.00
2022-11-07T23:06:39.805Z,0.80
2022-11-07T23:09:09.899Z,0.90
2022-11-07T23:11:46.480Z,1.40
2022-11-07T23:14:16.485Z,1.73
2022-11-07T23:16:48.075Z,1.30
2022-11-07T23:19:16.860Z,1.13
2022-11-07T23:21:44.384Z,1.10
2022-11-07T23:24:11.373Z,1.10
2022-11-07T23:26:39.100Z,0.70
2022-11-07T23:29:18.611Z,0.70
2022-11-07T23:31:47.530Z,0.90
2022-11-07T23:34:14.982Z,0.97
2022-11-07T23:36:44.292Z,0.90
2022-11-07T23:39:17.740Z,0.80
2022-11-07T23:41:45.397Z,1.00
2022-11-07T23:44:13.366Z,0.97
2022-11-07T23:46:59.361Z,1.07
2022-11-07T23:49:44.925Z,1.03
2022-11-07T23:52:11.998Z,0.90
2022-11-07T23:54:57.413Z,1.00
2022-11-07T23:57:24.724Z,0.93
